Time;durP1;ratioP1;P1;durP2;ratioP2;P2;SDS_P1;SDS_P2;PMS_P1;PMS_P2;Temp;Humidity;BMP_temperature;BMP_pressure;BME280_temperature;BME280_humidity;BME280_pressure;Samples;Min_cycle;Max_cycle;Signal;HPM_P1;HPM_P2
2022/12/30 00:00:10;;;;;;;15.17;2.13;;;;;;;14.10;50.81;100962.44;5109945;28;20495;-68
2022/12/30 00:02:36;;;;;;;15.60;1.97;;;;;;;14.28;51.26;100955.91;5094425;28;20556;-68
2022/12/30 00:05:01;;;;;;;17.23;2.37;;;;;;;14.15;51.34;100965.81;5112380;27;20543;-68
2022/12/30 00:07:27;;;;;;;15.97;2.43;;;;;;;12.66;54.32;100968.66;5109006;28;20388;-68
2022/12/30 00:09:53;;;;;;;11.40;2.23;;;;;;;13.93;52.50;100971.56;5091916;28;20034;-67
2022/12/30 00:34:36;;;;;;;19.97;2.20;;;;;;;13.84;52.48;100993.63;5090014;28;20498;-68
2022/12/30 00:37:02;;;;;;;17.47;2.97;;;;;;;13.80;52.01;100985.84;5088764;28;20028;-68
2022/12/30 00:39:27;;;;;;;12.23;2.23;;;;;;;14.35;51.41;100984.63;5110066;28;20027;-68
2022/12/30 00:44:36;;;;;;;8.53;1.60;;;;;;;14.91;49.52;100988.56;5109947;28;20054;-68
2022/12/30 00:47:03;;;;;;;8.70;2.00;;;;;;;14.51;50.28;100989.53;5092394;28;20028;-68
2022/12/30 00:57:40;;;;;;;10.17;2.07;;;;;;;14.43;49.94;100993.19;5119511;27;20035;-69
2022/12/30 01:00:08;;;;;;;15.47;2.43;;;;;;;13.34;53.01;101009.47;5106776;28;20043;-69
2022/12/30 01:02:33;;;;;;;13.37;2.40;;;;;;;13.72;52.19;101001.75;5091531;28;20093;-69
2022/12/30 01:04:59;;;;;;;13.90;2.77;;;;;;;14.06;51.61;100999.28;5091367;28;20023;-69
2022/12/30 01:07:27;;;;;;;14.40;1.70;;;;;;;14.07;51.51;100995.75;5092621;28;20020;-69
2022/12/30 01:09:52;;;;;;;6.80;1.90;;;;;;;13.46;53.54;101004.91;5108525;28;20360;-69
2022/12/30 01:12:17;;;;;;;22.27;2.43;;;;;;;13.58;52.88;101002.03;5093827;28;20035;-69
2022/12/30 01:14:48;;;;;;;12.53;1.73;;;;;;;12.65;55.34;100990.56;5091141;28;20471;-69
2022/12/30 01:17:17;;;;;;;16.97;2.47;;;;;;;13.62;53.29;100998.47;5110192;28;20034;-69
2022/12/30 01:19:42;;;;;;;16.00;2.00;;;;;;;13.24;53.88;101003.53;5091660;28;20027;-68
2022/12/30 01:22:08;;;;;;;18.30;1.90;;;;;;;13.72;52.92;101000.03;5083461;28;20024;-68
2022/12/30 01:24:34;;;;;;;13.43;2.30;;;;;;;13.10;55.47;101009.91;5084772;28;20023;-69
2022/12/30 01:27:00;;;;;;;13.00;2.03;;;;;;;13.31;53.39;101014.78;5094416;28;20045;-69
2022/12/30 01:29:34;;;;;;;9.23;1.87;;;;;;;12.72;55.60;101000.06;5091047;28;20388;-69
2022/12/30 01:32:00;;;;;;;15.07;2.67;;;;;;;13.93;52.33;101003.09;5091692;28;20382;-69
2022/12/30 01:34:26;;;;;;;26.27;3.27;;;;;;;13.95;52.07;101000.44;5110703;28;20078;-68
2022/12/30 01:36:52;;;;;;;11.87;1.93;;;;;;;13.74;52.11;101008.72;5091802;28;20839;-69
2022/12/30 01:39:18;;;;;;;9.43;1.77;;;;;;;13.87;52.65;101013.72;5109570;28;20049;-69
2022/12/30 01:41:44;;;;;;;11.60;1.80;;;;;;;13.77;52.54;101012.19;5110431;28;20031;-68
2022/12/30 01:44:47;;;;;;;11.47;2.20;;;;;;;13.66;53.51;101008.00;5094824;28;20034;-70
2022/12/30 01:47:21;;;;;;;8.90;1.70;;;;;;;13.11;54.80;101017.75;5094604;28;20589;-69
2022/12/30 01:49:51;;;;;;;6.37;1.70;;;;;;;12.61;58.33;101014.22;5099595;28;20118;-69
2022/12/30 01:52:20;;;;;;;19.97;2.57;;;;;;;13.23;56.99;101014.06;5106931;28;20414;-69
2022/12/30 01:54:47;;;;;;;14.90;2.57;;;;;;;13.29;54.34;101021.81;5090068;28;20093;-69
2022/12/30 01:57:15;;;;;;;20.10;2.63;;;;;;;13.20;54.54;101019.34;5094739;28;20081;-69
2022/12/30 01:59:43;;;;;;;16.40;3.97;;;;;;;13.47;54.10;101020.63;5095044;28;20122;-69
2022/12/30 02:02:09;;;;;;;13.70;2.10;;;;;;;13.86;51.92;101018.13;5111717;28;20111;-69
2022/12/30 02:04:34;;;;;;;18.03;3.13;;;;;;;13.17;55.67;101022.03;5113575;27;20118;-69
2022/12/30 02:07:15;;;;;;;15.47;3.17;;;;;;;13.83;52.77;101012.06;5092959;28;20249;-69
2022/12/30 02:09:41;;;;;;;18.47;2.80;;;;;;;13.50;53.46;101009.22;5093714;28;20023;-68
2022/12/30 02:12:07;;;;;;;9.13;2.40;;;;;;;14.05;51.44;101008.09;5104921;28;20487;-69
2022/12/30 02:14:36;;;;;;;24.20;3.20;;;;;;;13.78;52.22;101006.03;5113390;28;20032;-69
2022/12/30 02:17:16;;;;;;;18.20;3.30;;;;;;;13.87;52.42;101004.06;5113897;28;20093;-69
2022/12/30 02:19:59;;;;;;;19.47;2.63;;;;;;;14.40;50.92;100988.00;5111959;28;20031;-68
2022/12/30 02:22:42;;;;;;;13.73;3.33;;;;;;;13.83;51.16;100996.28;5110001;28;20035;-69
2022/12/30 02:25:34;;;;;;;16.30;2.88;;;;;;;13.82;51.87;100989.28;5112315;28;20030;-68
2022/12/30 02:28:21;;;;;;;19.73;2.85;;;;;;;13.62;53.06;100992.34;5074994;28;20126;-69
2022/12/30 02:30:59;;;;;;;11.73;2.63;;;;;;;13.58;52.42;100981.03;5099231;28;20077;-69
2022/12/30 02:33:49;;;;;;;16.57;2.80;;;;;;;13.26;53.62;100979.88;5094977;28;20027;-69
2022/12/30 02:36:26;;;;;;;16.93;2.70;;;;;;;13.05;54.12;100974.13;5100249;28;20027;-69
2022/12/30 02:39:03;;;;;;;15.40;2.60;;;;;;;12.92;54.27;100977.00;5095353;28;20031;-69
2022/12/30 02:44:43;;;;;;;23.83;4.03;;;;;;;13.08;55.18;100986.34;5108832;28;20126;-69
2022/12/30 02:47:24;;;;;;;14.43;3.13;;;;;;;13.48;54.25;100984.75;5097572;28;20020;-69
2022/12/30 02:52:50;;;;;;;21.13;4.10;;;;;;;12.94;55.79;100989.22;5112940;27;20064;-69
2022/12/30 02:55:17;;;;;;;19.27;3.13;;;;;;;13.20;54.64;100985.22;5091988;28;20028;-69
2022/12/30 02:57:42;;;;;;;18.87;3.03;;;;;;;13.94;53.00;100981.16;5110180;28;20035;-69
2022/12/30 03:06:24;;;;;;;14.30;2.83;;;;;;;13.74;52.91;100984.22;5112741;28;20039;-68
2022/12/30 03:09:01;;;;;;;15.07;3.27;;;;;;;13.77;51.87;100976.28;5039007;28;20138;-69
2022/12/30 03:11:41;;;;;;;17.63;3.07;;;;;;;13.55;51.75;100981.09;5103932;28;20378;-69
2022/12/30 03:14:42;;;;;;;13.50;3.17;;;;;;;13.56;52.37;100980.22;5110993;27;20027;-69
2022/12/30 03:17:15;;;;;;;14.50;4.27;;;;;;;12.96;53.21;100981.31;5076276;28;20043;-69
2022/12/30 03:19:44;;;;;;;14.00;2.95;;;;;;;13.65;52.47;100977.38;5111971;28;20024;-69
2022/12/30 03:27:03;;;;;;;11.97;2.27;;;;;;;13.74;53.10;100971.94;5110265;28;20020;-69
2022/12/30 03:27:45;;;;;;;14.23;2.50;;;;;;;14.00;50.43;100962.63;5105340;27;20054;-69
2022/12/30 03:30:11;;;;;;;19.93;2.37;;;;;;;12.76;54.61;100952.78;5091578;28;20038;-69
2022/12/30 03:32:37;;;;;;;13.93;2.70;;;;;;;12.93;54.09;100953.34;5094623;28;20035;-69
2022/12/30 03:35:03;;;;;;;10.27;2.77;;;;;;;12.97;54.10;100957.66;5111775;28;20129;-69
2022/12/30 03:37:51;;;;;;;16.20;2.87;;;;;;;13.18;53.51;100956.38;5092201;28;20118;-69
2022/12/30 03:40:31;;;;;;;8.77;2.30;;;;;;;13.70;51.44;100954.50;5092549;28;20032;-69
2022/12/30 03:42:58;;;;;;;24.87;2.80;;;;;;;12.63;53.52;100945.13;5118082;27;20034;-69
2022/12/30 03:45:24;;;;;;;21.33;3.63;;;;;;;13.41;52.07;100944.63;5088977;28;20106;-69
2022/12/30 03:47:49;;;;;;;19.30;3.10;;;;;;;13.03;52.97;100936.53;5091481;28;20521;-69
2022/12/30 03:50:16;;;;;;;14.97;2.73;;;;;;;13.22;52.96;100941.47;5095742;28;20027;-68
2022/12/30 03:52:41;;;;;;;23.53;2.83;;;;;;;13.65;51.62;100945.84;5091220;28;20106;-68
2022/12/30 03:55:08;;;;;;;20.50;2.90;;;;;;;13.21;52.05;100950.22;5110918;28;20107;-69
2022/12/30 03:57:33;;;;;;;21.87;2.83;;;;;;;12.82;53.07;100952.69;5106340;27;20553;-69
2022/12/30 03:59:59;;;;;;;13.77;2.80;;;;;;;12.90;53.50;100945.56;5092762;28;20080;-69
2022/12/30 04:02:25;;;;;;;13.50;2.43;;;;;;;13.28;51.90;100951.81;5108181;28;20032;-69
2022/12/30 04:04:51;;;;;;;15.80;3.13;;;;;;;11.99;55.46;100950.47;5090978;28;20077;-69
2022/12/30 04:07:16;;;;;;;20.43;3.17;;;;;;;12.68;54.24;100945.91;5091481;28;20020;-69
2022/12/30 04:09:42;;;;;;;14.23;2.63;;;;;;;13.24;52.29;100950.16;5111011;28;20058;-69
2022/12/30 04:12:07;;;;;;;13.83;2.43;;;;;;;12.73;53.90;100953.69;5090206;28;20107;-69
2022/12/30 04:14:33;;;;;;;22.03;3.17;;;;;;;12.20;55.19;100958.91;5089947;28;20024;-69
2022/12/30 04:16:58;;;;;;;9.00;2.30;;;;;;;13.28;51.57;100962.31;5091574;28;20019;-69
2022/12/30 04:19:23;;;;;;;13.70;2.57;;;;;;;13.66;51.35;100958.09;5092337;28;20020;-69
2022/12/30 04:21:49;;;;;;;11.83;3.13;;;;;;;12.69;53.21;100960.75;5091905;28;20019;-69
2022/12/30 04:24:14;;;;;;;14.73;3.00;;;;;;;12.53;54.30;100948.81;5112124;27;20027;-68
2022/12/30 04:26:40;;;;;;;24.23;3.20;;;;;;;13.27;52.04;100943.97;5092358;28;20042;-69
2022/12/30 04:29:06;;;;;;;10.47;2.87;;;;;;;12.21;55.07;100934.41;5093551;28;20027;-69
2022/12/30 04:31:31;;;;;;;12.50;4.50;;;;;;;12.81;53.74;100948.31;5096512;27;20038;-69
2022/12/30 04:33:56;;;;;;;16.07;3.73;;;;;;;11.87;55.52;100951.47;5104021;27;20064;-69
2022/12/30 04:36:22;;;;;;;10.33;3.20;;;;;;;12.75;53.15;100951.03;5113233;27;20408;-69
2022/12/30 04:38:47;;;;;;;27.10;4.20;;;;;;;13.65;51.42;100939.75;5108237;27;20033;-69
2022/12/30 04:41:14;;;;;;;16.10;3.57;;;;;;;13.05;52.35;100933.88;5112130;27;20041;-69
2022/12/30 04:43:39;;;;;;;17.23;2.83;;;;;;;13.01;52.54;100933.09;5090842;27;20031;-69
2022/12/30 04:46:05;;;;;;;10.80;3.63;;;;;;;12.83;52.94;100938.66;5092523;28;20421;-69
2022/12/30 04:48:32;;;;;;;10.23;3.20;;;;;;;13.37;51.98;100932.44;5092976;28;20023;-68
2022/12/30 04:50:57;;;;;;;15.53;3.10;;;;;;;12.73;53.32;100923.09;5091776;28;20057;-69
2022/12/30 04:53:22;;;;;;;16.93;3.47;;;;;;;12.89;52.60;100922.81;5108498;28;20027;-69
2022/12/30 04:55:55;;;;;;;12.03;3.00;;;;;;;12.20;55.47;100911.75;5089452;28;20048;-69
2022/12/30 04:58:22;;;;;;;22.27;3.83;;;;;;;12.16;55.66;100910.06;5092763;28;20019;-69
2022/12/30 05:00:49;;;;;;;15.40;3.40;;;;;;;12.27;54.16;100902.88;5126755;27;20039;-69
2022/12/30 05:03:14;;;;;;;20.73;3.63;;;;;;;11.50;56.64;100909.19;5091599;28;20035;-69
2022/12/30 05:05:39;;;;;;;17.03;3.60;;;;;;;12.17;55.99;100898.66;5091664;28;20016;-69
2022/12/30 05:08:05;;;;;;;16.57;3.77;;;;;;;12.78;53.39;100924.78;5091184;28;20499;-68
2022/12/30 05:10:33;;;;;;;15.00;3.27;;;;;;;12.50;54.80;100914.75;5091519;28;20558;-69
2022/12/30 05:12:59;;;;;;;18.53;3.37;;;;;;;12.54;53.90;100921.66;5103806;28;20019;-69
2022/12/30 05:15:24;;;;;;;16.70;3.00;;;;;;;12.54;54.09;100919.03;5095342;28;20057;-68
2022/12/30 05:17:49;;;;;;;15.97;3.47;;;;;;;12.94;52.05;100914.84;5112451;28;20059;-69
2022/12/30 05:20:15;;;;;;;15.27;3.50;;;;;;;12.02;55.96;100924.22;5094780;28;20797;-69
2022/12/30 05:22:40;;;;;;;17.13;4.23;;;;;;;11.92;56.87;100927.81;5095414;28;20055;-69
2022/12/30 05:27:50;;;;;;;18.40;3.53;;;;;;;12.75;54.09;100914.31;5117866;27;20042;-69
2022/12/30 05:30:15;;;;;;;20.93;3.90;;;;;;;12.83;53.24;100913.31;5094404;28;20023;-69
2022/12/30 05:32:40;;;;;;;15.43;3.60;;;;;;;12.70;53.97;100912.66;5094356;28;20031;-69
2022/12/30 05:35:06;;;;;;;17.97;4.77;;;;;;;12.45;53.98;100913.97;5097031;28;20425;-69
2022/12/30 05:37:32;;;;;;;15.23;3.40;;;;;;;12.75;53.78;100903.84;5093577;28;20061;-69
2022/12/30 05:39:57;;;;;;;18.80;5.00;;;;;;;12.85;53.22;100895.78;5095642;28;20709;-69
2022/12/30 05:42:22;;;;;;;18.23;4.10;;;;;;;12.82;53.34;100889.72;5093622;28;20024;-69
2022/12/30 05:44:48;;;;;;;22.80;4.53;;;;;;;12.46;54.94;100892.09;5112794;28;20093;-69
2022/12/30 05:47:13;;;;;;;22.90;4.37;;;;;;;13.06;52.18;100894.53;5112466;28;20111;-69
2022/12/30 05:49:38;;;;;;;29.77;4.90;;;;;;;12.22;54.41;100886.38;5096627;28;20124;-69
2022/12/30 05:52:04;;;;;;;15.90;3.60;;;;;;;12.52;53.86;100887.59;5111401;28;20035;-69
2022/12/30 05:54:29;;;;;;;20.50;4.33;;;;;;;12.48;54.33;100877.22;5113342;27;20030;-69
2022/12/30 05:56:54;;;;;;;19.93;3.70;;;;;;;11.91;54.47;100878.97;5098199;27;20110;-69
2022/12/30 05:59:20;;;;;;;20.47;4.30;;;;;;;11.56;56.74;100888.16;5093322;28;20032;-69
2022/12/30 06:01:45;;;;;;;13.03;3.77;;;;;;;11.71;57.08;100877.47;5093963;28;20442;-69
2022/12/30 06:04:11;;;;;;;16.60;3.63;;;;;;;11.95;54.70;100880.69;5094115;28;20440;-69
2022/12/30 06:06:36;;;;;;;13.00;3.40;;;;;;;11.67;56.83;100875.78;5094270;28;20039;-68
2022/12/30 06:09:02;;;;;;;19.83;3.60;;;;;;;11.83;55.42;100865.13;5098590;27;20023;-69
2022/12/30 06:11:27;;;;;;;24.30;3.50;;;;;;;12.55;54.09;100868.34;5092934;28;20542;-69
2022/12/30 06:13:53;;;;;;;16.70;3.30;;;;;;;12.21;54.20;100861.03;5096960;28;20482;-68
2022/12/30 06:16:18;;;;;;;19.37;3.70;;;;;;;12.22;54.29;100862.78;5094045;28;20030;-69
2022/12/30 06:18:43;;;;;;;16.47;3.23;;;;;;;12.43;53.99;100865.94;5111078;28;20371;-69
2022/12/30 06:21:09;;;;;;;19.07;3.50;;;;;;;12.41;53.77;100862.50;5092539;27;20038;-70
2022/12/30 06:23:34;;;;;;;11.70;3.50;;;;;;;12.11;55.22;100855.09;5112751;27;20032;-69
2022/12/30 06:26:00;;;;;;;22.80;3.07;;;;;;;11.98;55.49;100848.31;5112354;28;20031;-69
2022/12/30 06:28:27;;;;;;;20.03;3.07;;;;;;;12.14;55.10;100848.94;5091243;28;20046;-68
2022/12/30 06:30:53;;;;;;;20.00;3.80;;;;;;;11.58;56.51;100844.53;5091550;28;20023;-69
2022/12/30 06:33:19;;;;;;;14.50;2.90;;;;;;;11.93;55.43;100843.13;5105366;28;20025;-69
2022/12/30 06:35:46;;;;;;;14.10;2.53;;;;;;;11.48;56.96;100845.50;5092905;27;20111;-68
2022/12/30 06:38:12;;;;;;;21.43;3.83;;;;;;;11.25;59.32;100846.69;5109479;27;20036;-68
2022/12/30 06:40:37;;;;;;;18.50;3.33;;;;;;;11.87;56.85;100841.47;5114721;27;20433;-69
2022/12/30 06:43:03;;;;;;;12.80;3.33;;;;;;;12.36;54.92;100834.59;5107412;28;20027;-69
2022/12/30 06:45:28;;;;;;;18.07;3.17;;;;;;;11.62;57.39;100829.63;5110905;28;20121;-68
2022/12/30 06:47:54;;;;;;;21.77;3.37;;;;;;;11.31;58.49;100825.66;5094758;28;20027;-69
2022/12/30 06:50:19;;;;;;;19.47;3.53;;;;;;;11.80;56.88;100812.75;5091530;28;20505;-69
2022/12/30 06:52:45;;;;;;;25.60;3.50;;;;;;;12.42;55.16;100812.66;5112956;28;20034;-69
2022/12/30 06:55:10;;;;;;;15.00;3.13;;;;;;;12.17;55.33;100801.72;5094407;28;20070;-69
2022/12/30 06:57:35;;;;;;;18.10;3.87;;;;;;;12.08;55.73;100796.66;5110022;28;20028;-69
2022/12/30 07:00:02;;;;;;;20.00;3.33;;;;;;;11.94;55.15;100800.34;5112818;28;20114;-69
2022/12/30 07:02:28;;;;;;;17.60;2.77;;;;;;;12.50;54.81;100800.28;5109798;28;20031;-69
2022/12/30 07:04:53;;;;;;;19.13;3.33;;;;;;;11.23;56.92;100801.34;5111982;28;20076;-68
2022/12/30 07:07:18;;;;;;;18.13;5.83;;;;;;;12.13;56.30;100784.31;5091844;28;20691;-69
2022/12/30 07:09:44;;;;;;;16.47;3.50;;;;;;;11.89;55.66;100778.56;5132296;27;20387;-69
2022/12/30 07:12:09;;;;;;;18.40;5.13;;;;;;;11.63;58.47;100772.00;5098362;28;20391;-69
2022/12/30 07:14:35;;;;;;;18.80;3.73;;;;;;;11.28;58.19;100773.38;5091863;28;20038;-69
2022/12/30 07:17:00;;;;;;;18.97;4.80;;;;;;;11.85;56.55;100769.03;5094608;28;20018;-69
2022/12/30 07:19:26;;;;;;;17.20;3.53;;;;;;;11.25;59.41;100778.66;5112142;28;20551;-69
2022/12/30 07:21:52;;;;;;;19.43;4.83;;;;;;;11.67;57.50;100759.72;5119262;27;20019;-69
2022/12/30 07:24:17;;;;;;;15.47;3.43;;;;;;;11.89;58.08;100760.25;5110542;27;20402;-69
2022/12/30 07:26:43;;;;;;;17.83;3.03;;;;;;;11.48;58.21;100759.13;5109406;28;20019;-69
2022/12/30 07:29:08;;;;;;;15.97;4.40;;;;;;;12.27;55.82;100744.75;5091764;28;20036;-69
2022/12/30 07:31:34;;;;;;;14.10;2.93;;;;;;;12.31;55.41;100747.31;5112163;28;20021;-69
2022/12/30 07:33:59;;;;;;;15.67;3.60;;;;;;;11.87;56.08;100738.47;5110867;28;20479;-69
2022/12/30 07:36:24;;;;;;;18.40;3.13;;;;;;;11.43;58.69;100729.53;5088359;28;20544;-69
2022/12/30 07:38:50;;;;;;;11.40;3.50;;;;;;;12.14;56.70;100726.66;5106445;28;20023;-69
2022/12/30 07:41:15;;;;;;;17.03;3.90;;;;;;;11.62;58.56;100731.00;5109560;28;20019;-69
2022/12/30 07:43:40;;;;;;;18.40;4.27;;;;;;;12.27;56.13;100724.69;5095484;28;20337;-69
2022/12/30 07:46:07;;;;;;;22.90;6.10;;;;;;;12.18;56.19;100719.59;5093068;28;20452;-69
2022/12/30 07:48:32;;;;;;;16.50;5.03;;;;;;;11.31;60.03;100721.00;5091181;28;20019;-69
2022/12/30 07:50:58;;;;;;;18.37;5.57;;;;;;;11.64;59.04;100723.13;5091029;28;20027;-69
2022/12/30 07:53:23;;;;;;;22.83;5.63;;;;;;;11.61;59.27;100728.38;5093132;28;20449;-69
2022/12/30 07:55:48;;;;;;;16.00;4.53;;;;;;;11.32;61.37;100724.47;5093023;28;20075;-69
2022/12/30 07:58:14;;;;;;;13.87;3.43;;;;;;;10.76;63.55;100717.38;5086980;28;20019;-69
2022/12/30 08:00:39;;;;;;;13.43;3.83;;;;;;;11.23;60.05;100707.16;5092171;28;20507;-69
2022/12/30 08:03:04;;;;;;;18.60;6.43;;;;;;;11.63;60.63;100711.78;5093318;28;20023;-69
2022/12/30 08:05:30;;;;;;;14.17;4.17;;;;;;;11.42;59.97;100702.53;5096778;27;20027;-69
2022/12/30 08:07:55;;;;;;;21.80;4.30;;;;;;;11.62;61.71;100704.84;5112908;27;20478;-69
2022/12/30 08:10:20;;;;;;;15.20;4.10;;;;;;;10.96;62.17;100693.59;5098270;28;20019;-69
2022/12/30 08:12:46;;;;;;;14.60;3.30;;;;;;;11.13;62.72;100685.50;5092735;28;20137;-69
2022/12/30 08:15:12;;;;;;;19.73;4.00;;;;;;;11.43;63.16;100698.13;5092094;28;20447;-69
2022/12/30 08:17:38;;;;;;;17.80;4.23;;;;;;;11.60;62.81;100680.41;5111042;28;20027;-69
2022/12/30 08:20:06;;;;;;;11.73;3.23;;;;;;;11.83;60.91;100681.78;5107682;28;20084;-69
2022/12/30 08:22:31;;;;;;;14.30;4.00;;;;;;;12.03;59.68;100673.59;5091757;28;20424;-70
2022/12/30 08:24:57;;;;;;;15.37;3.50;;;;;;;12.11;59.53;100670.84;5091236;28;20397;-69
2022/12/30 08:27:22;;;;;;;14.43;3.87;;;;;;;12.07;59.19;100683.13;5111815;28;20024;-69
2022/12/30 08:29:47;;;;;;;16.77;3.70;;;;;;;11.76;62.45;100685.38;5091503;28;20027;-69
2022/12/30 08:32:13;;;;;;;25.87;3.97;;;;;;;12.32;59.68;100670.44;5111098;28;20069;-70
2022/12/30 08:34:38;;;;;;;13.10;4.53;;;;;;;12.12;59.68;100683.06;5092033;28;20035;-69
2022/12/30 08:37:03;;;;;;;8.07;3.27;;;;;;;12.67;57.45;100666.19;5106473;27;20027;-69
2022/12/30 08:39:29;;;;;;;12.07;3.60;;;;;;;12.87;57.15;100662.28;5081835;28;20438;-69
2022/12/30 08:41:54;;;;;;;12.83;3.60;;;;;;;11.67;60.94;100671.56;5093778;28;20028;-69
2022/12/30 08:44:20;;;;;;;11.80;4.37;;;;;;;12.04;60.07;100655.22;5105851;27;20030;-69
2022/12/30 08:46:45;;;;;;;10.40;3.73;;;;;;;13.02;57.22;100661.94;5094111;27;20059;-69
2022/12/30 08:49:11;;;;;;;14.83;3.80;;;;;;;12.42;58.59;100651.88;5073991;28;20034;-70
2022/12/30 08:51:37;;;;;;;14.83;4.70;;;;;;;11.65;61.21;100662.88;5087935;28;20042;-69
2022/12/30 08:54:04;;;;;;;9.47;3.23;;;;;;;12.20;59.56;100654.94;5089421;28;20042;-69
2022/12/30 08:56:34;;;;;;;10.20;3.40;;;;;;;11.85;61.38;100654.66;5090524;28;20055;-69
2022/12/30 08:59:00;;;;;;;20.93;12.43;;;;;;;12.80;59.01;100637.09;5112696;27;20027;-69
2022/12/30 09:01:33;;;;;;;12.67;3.87;;;;;;;12.85;58.07;100637.84;5101161;28;20052;-69
2022/12/30 09:04:00;;;;;;;11.43;3.90;;;;;;;12.75;57.63;100633.69;5107979;28;20044;-69
2022/12/30 09:06:28;;;;;;;11.57;3.53;;;;;;;11.98;60.53;100634.38;5087252;28;20038;-69
2022/12/30 09:08:55;;;;;;;8.47;3.37;;;;;;;12.35;61.11;100617.06;5094479;28;20041;-68
2022/12/30 09:11:23;;;;;;;23.70;4.17;;;;;;;13.33;57.26;100607.88;5090293;28;20028;-69
2022/12/30 09:13:50;;;;;;;16.70;4.57;;;;;;;12.30;59.23;100609.31;5113540;28;20460;-70
2022/12/30 09:16:17;;;;;;;8.47;3.37;;;;;;;13.21;57.21;100595.91;5090910;28;20032;-68
2022/12/30 09:18:43;;;;;;;14.67;4.97;;;;;;;12.76;58.15;100606.56;5091107;28;20039;-69
2022/12/30 09:21:08;;;;;;;16.30;4.43;;;;;;;12.71;57.23;100598.81;5107483;28;20025;-69
2022/12/30 09:23:35;;;;;;;11.23;3.67;;;;;;;12.60;58.31;100600.81;5089677;28;20043;-69
2022/12/30 09:26:00;;;;;;;8.27;3.10;;;;;;;13.91;53.75;100600.25;5109228;28;20542;-69
2022/12/30 09:28:26;;;;;;;29.37;14.73;;;;;;;13.79;54.21;100592.69;5107883;28;20032;-69
2022/12/30 09:30:52;;;;;;;4.90;2.60;;;;;;;13.19;56.15;100587.22;5093198;28;20525;-69
2022/12/30 09:33:17;;;;;;;7.97;2.80;;;;;;;13.16;56.29;100579.41;5107175;28;20042;-69
2022/12/30 09:35:42;;;;;;;12.53;4.10;;;;;;;13.91;53.65;100568.72;5090683;28;20028;-69
2022/12/30 09:38:08;;;;;;;11.07;4.20;;;;;;;13.71;54.32;100566.63;5092230;28;20030;-69
2022/12/30 09:40:57;;;;;;;5.57;3.80;;;;;;;14.33;52.97;100552.59;5097390;28;20992;-69
2022/12/30 09:43:32;;;;;;;15.77;4.87;;;;;;;14.69;51.96;100547.16;5108178;28;20063;-69
2022/12/30 09:46:18;;;;;;;6.53;3.97;;;;;;;13.09;56.15;100536.69;5088909;28;20027;-69
2022/12/30 09:48:50;;;;;;;5.33;3.00;;;;;;;13.28;54.67;100537.09;5086737;28;20112;-69
2022/12/30 09:51:25;;;;;;;8.37;2.97;;;;;;;13.77;53.29;100534.94;5090006;28;20084;-69
2022/12/30 09:53:53;;;;;;;6.80;2.80;;;;;;;13.84;54.04;100535.66;5085816;28;20296;-68
2022/12/30 09:56:33;;;;;;;8.70;4.07;;;;;;;13.64;53.06;100533.56;5097284;28;20062;-69
2022/12/30 09:59:05;;;;;;;9.70;3.00;;;;;;;13.45;54.42;100533.19;5090987;28;20042;-68
2022/12/30 10:01:44;;;;;;;9.50;2.60;;;;;;;13.85;54.59;100513.72;5109035;28;20504;-69
2022/12/30 10:04:14;;;;;;;5.00;2.50;;;;;;;13.74;53.23;100514.88;5092713;27;20166;-69
2022/12/30 10:06:57;;;;;;;3.73;2.40;;;;;;;13.51;55.02;100512.03;5106881;28;20026;-69
2022/12/30 10:09:32;;;;;;;5.93;2.65;;;;;;;13.52;54.86;100505.91;5113582;28;20047;-69
2022/12/30 10:12:12;;;;;;;10.67;2.50;;;;;;;14.11;53.68;100506.81;5094733;27;20111;-69
2022/12/30 10:15:14;;;;;;;4.00;1.90;;;;;;;13.09;54.87;100488.63;5113878;27;20034;-69
2022/12/30 10:17:52;;;;;;;5.43;1.80;;;;;;;13.82;54.43;100479.66;5076275;28;20024;-69
2022/12/30 10:20:43;;;;;;;6.83;1.90;;;;;;;13.90;52.84;100477.66;5110450;28;20039;-69
2022/12/30 10:23:20;;;;;;;3.97;1.73;;;;;;;14.37;53.05;100470.09;5111783;28;20027;-69
2022/12/30 10:26:00;;;;;;;6.57;2.13;;;;;;;13.44;54.17;100465.84;5110191;28;20032;-69
2022/12/30 10:28:38;;;;;;;3.83;2.27;;;;;;;13.69;55.75;100453.72;5078601;28;20036;-69
2022/12/30 10:31:07;;;;;;;4.80;1.93;;;;;;;14.21;54.02;100453.09;5092800;28;20019;-69
2022/12/30 10:33:34;;;;;;;7.77;2.20;;;;;;;14.68;51.64;100424.41;5090823;28;20038;-69
2022/12/30 10:36:14;;;;;;;6.60;2.43;;;;;;;14.82;52.05;100409.94;5105491;27;20030;-69
2022/12/30 10:38:40;;;;;;;6.27;2.20;;;;;;;14.93;51.48;100411.31;5074341;28;20051;-69
2022/12/30 10:41:15;;;;;;;9.43;2.63;;;;;;;14.33;54.25;100408.00;5094557;28;20055;-69
2022/12/30 10:44:16;;;;;;;15.07;2.67;;;;;;;13.79;54.75;100388.66;5112813;28;20031;-68
2022/12/30 10:46:56;;;;;;;7.63;2.00;;;;;;;14.27;53.72;100376.66;5094027;28;20026;-69
2022/12/30 10:49:59;;;;;;;4.57;1.60;;;;;;;14.21;53.37;100367.19;5107969;28;20078;-69
2022/12/30 10:52:25;;;;;;;9.02;2.90;;;;;;;13.99;53.48;100356.50;5087139;28;20038;-69
2022/12/30 10:54:51;;;;;;;10.73;2.23;;;;;;;13.86;54.72;100345.53;5094282;28;20019;-69
2022/12/30 10:57:21;;;;;;;8.63;2.03;;;;;;;13.50;56.34;100337.03;5094901;28;20035;-69
2022/12/30 10:59:47;;;;;;;4.60;1.53;;;;;;;14.55;52.81;100324.00;5091529;28;20397;-69
2022/12/30 11:02:21;;;;;;;5.33;1.87;;;;;;;14.78;52.89;100310.97;5093388;28;20032;-69
2022/12/30 11:04:46;;;;;;;7.87;2.20;;;;;;;13.86;54.75;100307.88;5096805;27;20030;-68
2022/12/30 11:07:14;;;;;;;8.03;1.63;;;;;;;14.08;54.82;100287.91;5092524;28;20038;-69
2022/12/30 11:09:40;;;;;;;4.60;1.63;;;;;;;14.02;54.01;100293.34;5110123;28;20024;-69
2022/12/30 11:15:13;;;;;;;8.83;2.50;;;;;;;14.51;53.18;100256.66;5121224;27;20397;-69
2022/12/30 11:17:51;;;;;;;10.60;2.83;;;;;;;14.65;53.26;100250.94;5100553;28;20030;-69
2022/12/30 11:20:39;;;;;;;9.10;2.53;;;;;;;14.65;53.45;100248.28;5112039;28;20039;-69
2022/12/30 11:23:20;;;;;;;5.13;2.27;;;;;;;14.10;54.41;100226.56;5094244;28;20546;-68
2022/12/30 11:25:46;;;;;;;6.63;1.63;;;;;;;14.48;53.16;100233.09;5093004;28;20020;-69
2022/12/30 11:28:18;;;;;;;3.27;1.30;;;;;;;14.54;52.81;100216.25;5091248;28;20034;-69
2022/12/30 11:30:57;;;;;;;9.20;1.70;;;;;;;14.65;52.53;100200.94;5104886;28;20015;-69
2022/12/30 11:33:39;;;;;;;4.43;1.40;;;;;;;14.80;51.92;100182.91;5110325;28;20027;-69
2022/12/30 11:36:28;;;;;;;6.00;1.60;;;;;;;14.96;52.34;100181.41;5104776;27;20024;-69
2022/12/30 11:38:55;;;;;;;8.77;1.37;;;;;;;14.48;52.81;100164.75;5093823;28;20138;-67
2022/12/30 11:41:27;;;;;;;10.13;1.90;;;;;;;14.30;53.68;100161.00;5090442;28;20016;-67
2022/12/30 11:43:59;;;;;;;6.00;1.55;;;;;;;14.09;54.66;100152.09;5092631;28;20027;-67
2022/12/30 11:46:44;;;;;;;6.53;1.40;;;;;;;14.54;54.36;100126.84;5092612;28;20068;-67
2022/12/30 11:49:27;;;;;;;6.33;1.40;;;;;;;14.65;53.88;100118.56;5109398;27;20045;-66
2022/12/30 11:52:16;;;;;;;3.93;1.70;;;;;;;14.74;53.53;100095.41;5117228;27;20471;-66
2022/12/30 11:54:45;;;;;;;6.03;1.57;;;;;;;14.16;56.39;100089.66;5110920;28;20035;-69
2022/12/30 11:57:30;;;;;;;9.10;1.73;;;;;;;14.46;55.22;100076.31;5109431;28;20474;-66
2022/12/30 12:00:03;;;;;;;11.60;1.60;;;;;;;14.57;55.45;100088.09;5091943;28;20043;-66
2022/12/30 12:02:44;;;;;;;6.30;1.63;;;;;;;14.91;55.05;100070.19;5092803;28;20676;-66
2022/12/30 12:05:40;;;;;;;10.67;2.17;;;;;;;14.63;56.33;100067.78;5106065;28;20039;-66
2022/12/30 12:08:22;;;;;;;10.30;1.73;;;;;;;14.70;55.33;100062.25;5109754;28;20023;-67
2022/12/30 12:10:55;;;;;;;14.77;2.08;;;;;;;14.19;59.08;100058.00;5091638;28;20059;-66
2022/12/30 12:13:35;;;;;;;8.47;1.70;;;;;;;14.32;59.87;100048.75;5090517;28;20016;-66
2022/12/30 12:16:02;;;;;;;5.30;1.40;;;;;;;14.42;58.54;100044.88;5108469;28;20063;-67
2022/12/30 12:18:31;;;;;;;10.97;2.23;;;;;;;14.58;59.59;100037.22;5090896;28;20565;-68
2022/12/30 12:21:05;;;;;;;9.33;1.97;;;;;;;14.87;57.72;100031.78;5082840;28;20107;-67
2022/12/30 12:23:46;;;;;;;7.50;1.57;;;;;;;14.89;58.69;100016.75;5109631;28;20019;-67